F/V Cote D'ambre — FPEY — position and weather

sailwx.info

Track history (hours):
 
Tides and Currents Weather Stations Pressure Air Temp Water Temp Dewpoint Dewpoint Depression Visibility Wind Speed Wind Dir Waves Ship Positions

F/V Cote D'ambre

Last reported at 2015-Mar-28 04:32 UTC. Time now 2015-Mar-29 09:20 UTC.
Position N 47°44' W 003°22'.

Length 16 m; draft 4 m.

Type: Fishing. MMSI: 227128800.

Date/timePositionNaut miles runAvg speedWind from/ knotsBaromVisibWave heightAir tempDewpointWater temp
2015-Mar-28 04:32N 47°44' W 003°22'7 7.6
2015-Mar-28 03:34N 47°36' W 003°22'7 3.3
2015-Mar-28 01:30N 47°30' W 003°24'1 0.5
2015-Mar-28 00:28N 47°30' W 003°24'6 0.3
2015-Mar-27 03:03N 47°36' W 003°22'5 9.2
2015-Mar-27 02:33N 47°40' W 003°22'3 3.4
2015-Mar-27 01:32N 47°44' W 003°22'0 0.0
2015-Mar-27 00:32N 47°44' W 003°22'5 5.3
2015-Mar-26 23:33N 47°39' W 003°22'3 0.1
2015-Mar-25 00:25N 47°36' W 003°22'8 9.1
2015-Mar-24 23:33N 47°43' W 003°22'0 0.5
2015-Mar-24 22:33N 47°43' W 003°22'7 7.4
2015-Mar-24 21:33N 47°39' W 003°31'6 0.3
2015-Mar-24 04:11N 47°36' W 003°24'5 8.2
2015-Mar-24 03:33N 47°42' W 003°22'2 1.5
2015-Mar-24 02:33N 47°43' W 003°22'9 8.6
2015-Mar-24 01:33N 47°34' W 003°22'5 4.8
2015-Mar-24 00:33N 47°30' W 003°24'2 1.5
2015-Mar-23 23:25N 47°31' W 003°25'3 2.9
2015-Mar-23 22:33N 47°30' W 003°22'6 0.4
2015-Mar-23 05:30N 47°36' W 003°25'8 7.6
2015-Mar-23 04:29N 47°44' W 003°22'0 0.0
2015-Mar-21 03:33N 47°44' W 003°22'0 0.1
2015-Mar-21 02:32N 47°44' W 003°22'2 2.4
2015-Mar-21 01:33N 47°42' W 003°23'6 0.3
2015-Mar-20 04:19N 47°35' W 003°23'6 8.0
2015-Mar-20 03:33N 47°42' W 003°22'2 2.0
2015-Mar-20 02:27N 47°44' W 003°22'0 0.0
2015-Mar-20 01:33N 47°44' W 003°22'6 5.8
2015-Mar-20 00:33N 47°40' W 003°28'5 0.2
2015-Mar-19 02:33N 47°38' W 003°22'6 5.7
2015-Mar-19 01:31N 47°44' W 003°22'2 2.5
2015-Mar-19 00:33N 47°42' W 003°23'7 7.2
2015-Mar-18 23:31N 47°38' W 003°33'12 0.7
2015-Mar-18 05:29N 47°27' W 003°27'  
Track history (hours):
 
Tides and Currents Weather Stations Pressure Air Temp Water Temp Dewpoint Dewpoint Depression Visibility Wind Speed Wind Dir Waves Ship Positions

F/V Cote D'ambre

Last reported at 2015-Mar-28 04:32 UTC. Time now 2015-Mar-29 09:20 UTC.
Position N 47°44' W 003°22'.

Length 16 m; draft 4 m.

Type: Fishing. MMSI: 227128800.

Date/timePositionNaut miles runAvg speedWind from/ knotsBaromVisibWave heightAir tempDewpointWater temp
2015-Mar-28 04:32N 47°44' W 003°22'7 7.6
2015-Mar-28 03:34N 47°36' W 003°22'7 3.3
2015-Mar-28 01:30N 47°30' W 003°24'1 0.5
2015-Mar-28 00:28N 47°30' W 003°24'6 0.3
2015-Mar-27 03:03N 47°36' W 003°22'5 9.2
2015-Mar-27 02:33N 47°40' W 003°22'3 3.4
2015-Mar-27 01:32N 47°44' W 003°22'0 0.0
2015-Mar-27 00:32N 47°44' W 003°22'5 5.3
2015-Mar-26 23:33N 47°39' W 003°22'3 0.1
2015-Mar-25 00:25N 47°36' W 003°22'8 9.1
2015-Mar-24 23:33N 47°43' W 003°22'0 0.5
2015-Mar-24 22:33N 47°43' W 003°22'7 7.4
2015-Mar-24 21:33N 47°39' W 003°31'6 0.3
2015-Mar-24 04:11N 47°36' W 003°24'5 8.2
2015-Mar-24 03:33N 47°42' W 003°22'2 1.5
2015-Mar-24 02:33N 47°43' W 003°22'9 8.6
2015-Mar-24 01:33N 47°34' W 003°22'5 4.8
2015-Mar-24 00:33N 47°30' W 003°24'2 1.5
2015-Mar-23 23:25N 47°31' W 003°25'3 2.9
2015-Mar-23 22:33N 47°30' W 003°22'6 0.4
2015-Mar-23 05:30N 47°36' W 003°25'8 7.6
2015-Mar-23 04:29N 47°44' W 003°22'0 0.0
2015-Mar-21 03:33N 47°44' W 003°22'0 0.1
2015-Mar-21 02:32N 47°44' W 003°22'2 2.4
2015-Mar-21 01:33N 47°42' W 003°23'6 0.3
2015-Mar-20 04:19N 47°35' W 003°23'6 8.0
2015-Mar-20 03:33N 47°42' W 003°22'2 2.0
2015-Mar-20 02:27N 47°44' W 003°22'0 0.0
2015-Mar-20 01:33N 47°44' W 003°22'6 5.8
2015-Mar-20 00:33N 47°40' W 003°28'5 0.2
2015-Mar-19 02:33N 47°38' W 003°22'6 5.7
2015-Mar-19 01:31N 47°44' W 003°22'2 2.5
2015-Mar-19 00:33N 47°42' W 003°23'7 7.2
2015-Mar-18 23:31N 47°38' W 003°33'12 0.7
2015-Mar-18 05:29N 47°27' W 003°27'  

Dump ship's entire track history